sensor_id;sensor_type;location;lat;lon;timestamp;P1;durP1;ratioP1;P2;durP2;ratioP2
69837;SDS011;57135;51.992;4.476;2024-03-23T01:15:32;5.35;;;4.41;;
69837;SDS011;57135;51.992;4.476;2024-03-23T01:17:57;4.65;;;3.98;;
69837;SDS011;57135;51.992;4.476;2024-03-23T01:20:23;4.71;;;3.92;;
69837;SDS011;57135;51.992;4.476;2024-03-23T01:22:48;4.87;;;3.78;;
69837;SDS011;57135;51.992;4.476;2024-03-23T01:25:14;4.84;;;3.76;;
69837;SDS011;57135;51.992;4.476;2024-03-23T01:27:39;4.28;;;3.31;;
69837;SDS011;57135;51.992;4.476;2024-03-23T01:30:05;4.63;;;3.51;;
69837;SDS011;57135;51.992;4.476;2024-03-23T03:30:52;3.93;;;2.62;;
69837;SDS011;57135;51.992;4.476;2024-03-23T03:33:17;4.17;;;2.78;;
69837;SDS011;57135;51.992;4.476;2024-03-23T03:35:43;4.29;;;2.90;;
69837;SDS011;57135;51.992;4.476;2024-03-23T03:38:10;4.06;;;2.78;;
69837;SDS011;57135;51.992;4.476;2024-03-23T03:40:36;4.35;;;2.99;;
69837;SDS011;57135;51.992;4.476;2024-03-23T03:43:01;4.55;;;3.09;;
69837;SDS011;57135;51.992;4.476;2024-03-23T03:48:50;3.99;;;2.69;;
69837;SDS011;57135;51.992;4.476;2024-03-23T03:51:15;4.63;;;3.11;;
69837;SDS011;57135;51.992;4.476;2024-03-23T03:53:41;4.41;;;3.03;;
69837;SDS011;57135;51.992;4.476;2024-03-23T03:56:06;4.02;;;2.73;;
69837;SDS011;57135;51.992;4.476;2024-03-23T03:58:32;3.83;;;2.62;;
69837;SDS011;57135;51.992;4.476;2024-03-23T04:00:58;3.05;;;2.12;;
69837;SDS011;57135;51.992;4.476;2024-03-23T04:10:07;3.71;;;2.56;;
69837;SDS011;57135;51.992;4.476;2024-03-23T04:12:33;4.09;;;2.82;;
69837;SDS011;57135;51.992;4.476;2024-03-23T04:25:17;4.81;;;3.20;;
69837;SDS011;57135;51.992;4.476;2024-03-23T04:27:44;4.71;;;3.12;;
69837;SDS011;57135;51.992;4.476;2024-03-23T04:41:12;4.85;;;3.29;;
69837;SDS011;57135;51.992;4.476;2024-03-23T04:43:37;4.91;;;3.34;;
69837;SDS011;57135;51.992;4.476;2024-03-23T04:46:03;4.15;;;2.90;;
69837;SDS011;57135;51.992;4.476;2024-03-23T04:48:28;4.41;;;3.11;;
69837;SDS011;57135;51.992;4.476;2024-03-23T05:01:02;4.73;;;3.36;;
69837;SDS011;57135;51.992;4.476;2024-03-23T05:03:28;4.77;;;3.46;;
69837;SDS011;57135;51.992;4.476;2024-03-23T05:09:16;4.59;;;3.37;;
69837;SDS011;57135;51.992;4.476;2024-03-23T05:11:42;5.47;;;3.92;;
69837;SDS011;57135;51.992;4.476;2024-03-23T05:14:08;4.74;;;3.41;;
69837;SDS011;57135;51.992;4.476;2024-03-23T05:16:33;4.89;;;3.58;;
69837;SDS011;57135;51.992;4.476;2024-03-23T05:18:59;4.39;;;3.24;;
69837;SDS011;57135;51.992;4.476;2024-03-23T05:28:17;4.98;;;3.70;;
69837;SDS011;57135;51.992;4.476;2024-03-23T05:30:43;5.17;;;3.86;;
69837;SDS011;57135;51.992;4.476;2024-03-23T05:33:09;5.10;;;3.85;;
69837;SDS011;57135;51.992;4.476;2024-03-23T05:35:35;4.37;;;3.37;;
69837;SDS011;57135;51.992;4.476;2024-03-23T05:41:27;4.30;;;3.38;;
69837;SDS011;57135;51.992;4.476;2024-03-23T05:43:52;4.63;;;3.55;;
69837;SDS011;57135;51.992;4.476;2024-03-23T05:46:18;4.24;;;3.31;;
69837;SDS011;57135;51.992;4.476;2024-03-23T05:48:43;4.16;;;3.26;;
69837;SDS011;57135;51.992;4.476;2024-03-23T05:51:09;3.13;;;2.56;;
69837;SDS011;57135;51.992;4.476;2024-03-23T05:53:35;3.95;;;3.14;;
69837;SDS011;57135;51.992;4.476;2024-03-23T05:56:01;3.57;;;2.80;;
69837;SDS011;57135;51.992;4.476;2024-03-23T06:01:19;4.89;;;3.56;;
69837;SDS011;57135;51.992;4.476;2024-03-23T06:03:45;4.39;;;3.18;;
69837;SDS011;57135;51.992;4.476;2024-03-23T06:15:50;5.01;;;3.56;;
69837;SDS011;57135;51.992;4.476;2024-03-23T06:18:16;4.88;;;3.51;;
69837;SDS011;57135;51.992;4.476;2024-03-23T06:24:03;4.15;;;3.10;;
69837;SDS011;57135;51.992;4.476;2024-03-23T06:26:29;4.73;;;3.43;;
69837;SDS011;57135;51.992;4.476;2024-03-23T06:32:18;4.21;;;3.19;;
69837;SDS011;57135;51.992;4.476;2024-03-23T06:34:44;4.10;;;3.07;;
69837;SDS011;57135;51.992;4.476;2024-03-23T06:37:10;4.24;;;3.17;;
69837;SDS011;57135;51.992;4.476;2024-03-23T06:39:36;4.74;;;3.50;;
69837;SDS011;57135;51.992;4.476;2024-03-23T06:45:24;4.05;;;2.91;;
69837;SDS011;57135;51.992;4.476;2024-03-23T06:47:50;4.27;;;3.06;;
69837;SDS011;57135;51.992;4.476;2024-03-23T06:50:16;4.37;;;3.13;;
69837;SDS011;57135;51.992;4.476;2024-03-23T06:52:51;3.99;;;2.88;;
69837;SDS011;57135;51.992;4.476;2024-03-23T06:55:16;4.32;;;3.12;;
69837;SDS011;57135;51.992;4.476;2024-03-23T06:57:42;3.95;;;2.90;;
69837;SDS011;57135;51.992;4.476;2024-03-23T07:00:08;4.19;;;3.07;;
69837;SDS011;57135;51.992;4.476;2024-03-23T07:05:41;4.23;;;3.12;;
69837;SDS011;57135;51.992;4.476;2024-03-23T07:08:07;3.97;;;2.95;;
69837;SDS011;57135;51.992;4.476;2024-03-23T07:13:55;4.69;;;3.44;;
69837;SDS011;57135;51.992;4.476;2024-03-23T07:16:21;4.35;;;3.15;;
69837;SDS011;57135;51.992;4.476;2024-03-23T07:18:47;5.35;;;3.90;;
69837;SDS011;57135;51.992;4.476;2024-03-23T07:21:25;5.04;;;3.79;;
69837;SDS011;57135;51.992;4.476;2024-03-23T07:26:44;4.29;;;3.15;;
69837;SDS011;57135;51.992;4.476;2024-03-23T07:29:50;4.29;;;3.24;;
69837;SDS011;57135;51.992;4.476;2024-03-23T07:35:37;3.82;;;2.93;;
69837;SDS011;57135;51.992;4.476;2024-03-23T07:38:05;3.70;;;2.82;;
69837;SDS011;57135;51.992;4.476;2024-03-23T07:51:42;4.04;;;2.84;;
69837;SDS011;57135;51.992;4.476;2024-03-23T07:54:11;4.44;;;3.14;;
69837;SDS011;57135;51.992;4.476;2024-03-23T08:00:24;4.71;;;3.25;;
69837;SDS011;57135;51.992;4.476;2024-03-23T08:08:41;3.68;;;2.57;;
69837;SDS011;57135;51.992;4.476;2024-03-23T08:11:08;4.56;;;3.14;;
69837;SDS011;57135;51.992;4.476;2024-03-23T08:13:38;5.46;;;3.81;;
69837;SDS011;57135;51.992;4.476;2024-03-23T08:40:47;4.56;;;3.35;;
69837;SDS011;57135;51.992;4.476;2024-03-23T08:43:22;4.59;;;3.33;;
69837;SDS011;57135;51.992;4.476;2024-03-23T08:49:03;4.53;;;3.20;;
69837;SDS011;57135;51.992;4.476;2024-03-23T08:51:32;3.89;;;2.77;;
69837;SDS011;57135;51.992;4.476;2024-03-23T08:53:57;3.74;;;2.66;;
69837;SDS011;57135;51.992;4.476;2024-03-23T08:56:22;4.25;;;2.99;;
69837;SDS011;57135;51.992;4.476;2024-03-23T08:58:50;4.67;;;3.23;;
69837;SDS011;57135;51.992;4.476;2024-03-23T09:01:16;5.35;;;3.63;;
69837;SDS011;57135;51.992;4.476;2024-03-23T09:03:41;4.98;;;3.33;;
69837;SDS011;57135;51.992;4.476;2024-03-23T09:06:07;5.00;;;3.37;;
69837;SDS011;57135;51.992;4.476;2024-03-23T09:08:36;4.78;;;3.22;;
69837;SDS011;57135;51.992;4.476;2024-03-23T09:11:09;5.08;;;3.50;;
69837;SDS011;57135;51.992;4.476;2024-03-23T09:13:36;5.69;;;3.87;;
69837;SDS011;57135;51.992;4.476;2024-03-23T09:16:03;5.37;;;3.65;;
69837;SDS011;57135;51.992;4.476;2024-03-23T09:18:31;4.80;;;3.30;;
69837;SDS011;57135;51.992;4.476;2024-03-23T09:20:57;4.30;;;2.99;;
69837;SDS011;57135;51.992;4.476;2024-03-23T09:23:23;4.18;;;2.89;;
69837;SDS011;57135;51.992;4.476;2024-03-23T09:25:48;4.11;;;2.92;;
69837;SDS011;57135;51.992;4.476;2024-03-23T09:28:13;4.45;;;3.16;;
69837;SDS011;57135;51.992;4.476;2024-03-23T09:30:39;3.67;;;2.64;;
69837;SDS011;57135;51.992;4.476;2024-03-23T09:33:09;3.45;;;2.52;;
69837;SDS011;57135;51.992;4.476;2024-03-23T09:35:39;4.57;;;3.25;;
69837;SDS011;57135;51.992;4.476;2024-03-23T09:38:05;4.60;;;3.16;;
69837;SDS011;57135;51.992;4.476;2024-03-23T09:40:41;4.19;;;2.92;;
69837;SDS011;57135;51.992;4.476;2024-03-23T09:43:09;4.61;;;3.15;;
69837;SDS011;57135;51.992;4.476;2024-03-23T09:45:36;4.58;;;3.04;;
69837;SDS011;57135;51.992;4.476;2024-03-23T09:48:04;4.06;;;2.65;;
69837;SDS011;57135;51.992;4.476;2024-03-23T09:50:30;4.25;;;2.82;;
69837;SDS011;57135;51.992;4.476;2024-03-23T09:52:55;4.81;;;3.24;;
69837;SDS011;57135;51.992;4.476;2024-03-23T09:55:21;4.12;;;2.81;;
69837;SDS011;57135;51.992;4.476;2024-03-23T09:57:46;3.99;;;2.73;;
69837;SDS011;57135;51.992;4.476;2024-03-23T10:00:12;4.06;;;2.80;;
69837;SDS011;57135;51.992;4.476;2024-03-23T10:02:38;4.62;;;3.13;;
69837;SDS011;57135;51.992;4.476;2024-03-23T10:05:03;4.09;;;2.79;;
69837;SDS011;57135;51.992;4.476;2024-03-23T10:07:29;4.74;;;3.25;;
69837;SDS011;57135;51.992;4.476;2024-03-23T10:09:55;4.82;;;3.28;;
69837;SDS011;57135;51.992;4.476;2024-03-23T10:12:21;4.30;;;2.92;;
69837;SDS011;57135;51.992;4.476;2024-03-23T10:14:48;4.06;;;2.76;;
69837;SDS011;57135;51.992;4.476;2024-03-23T10:19:44;4.44;;;3.02;;
69837;SDS011;57135;51.992;4.476;2024-03-23T10:22:16;4.58;;;3.13;;
69837;SDS011;57135;51.992;4.476;2024-03-23T10:35:26;5.64;;;3.61;;
69837;SDS011;57135;51.992;4.476;2024-03-23T10:37:51;4.24;;;2.73;;
69837;SDS011;57135;51.992;4.476;2024-03-23T10:40:17;4.65;;;2.97;;
69837;SDS011;57135;51.992;4.476;2024-03-23T10:42:43;5.52;;;3.58;;
69837;SDS011;57135;51.992;4.476;2024-03-23T10:45:09;4.68;;;3.05;;
69837;SDS011;57135;51.992;4.476;2024-03-23T10:47:35;4.52;;;2.97;;
69837;SDS011;57135;51.992;4.476;2024-03-23T10:50:05;5.04;;;3.31;;
69837;SDS011;57135;51.992;4.476;2024-03-23T10:52:34;4.78;;;3.16;;
69837;SDS011;57135;51.992;4.476;2024-03-23T10:55:04;4.33;;;2.89;;
69837;SDS011;57135;51.992;4.476;2024-03-23T10:57:37;4.43;;;2.99;;
69837;SDS011;57135;51.992;4.476;2024-03-23T11:00:07;4.97;;;3.37;;
69837;SDS011;57135;51.992;4.476;2024-03-23T11:02:33;4.21;;;2.89;;
69837;SDS011;57135;51.992;4.476;2024-03-23T11:04:59;4.27;;;3.04;;
69837;SDS011;57135;51.992;4.476;2024-03-23T11:07:28;4.77;;;3.38;;
69837;SDS011;57135;51.992;4.476;2024-03-23T11:09:55;4.56;;;3.11;;
69837;SDS011;57135;51.992;4.476;2024-03-23T11:17:20;4.18;;;2.88;;
69837;SDS011;57135;51.992;4.476;2024-03-23T11:20:04;3.77;;;2.59;;
69837;SDS011;57135;51.992;4.476;2024-03-23T11:22:38;4.63;;;3.16;;
69837;SDS011;57135;51.992;4.476;2024-03-23T11:27:43;3.67;;;2.50;;
69837;SDS011;57135;51.992;4.476;2024-03-23T11:32:43;3.43;;;2.32;;
69837;SDS011;57135;51.992;4.476;2024-03-23T11:40:29;4.98;;;3.32;;
69837;SDS011;57135;51.992;4.476;2024-03-23T11:43:04;3.70;;;2.47;;
69837;SDS011;57135;51.992;4.476;2024-03-23T11:45:35;3.26;;;2.23;;
69837;SDS011;57135;51.992;4.476;2024-03-23T11:48:06;3.53;;;2.44;;
69837;SDS011;57135;51.992;4.476;2024-03-23T11:50:33;3.80;;;2.65;;
69837;SDS011;57135;51.992;4.476;2024-03-23T11:58:23;3.93;;;2.68;;
69837;SDS011;57135;51.992;4.476;2024-03-23T12:00:54;4.08;;;2.75;;
69837;SDS011;57135;51.992;4.476;2024-03-23T12:03:21;3.95;;;2.58;;
69837;SDS011;57135;51.992;4.476;2024-03-23T12:05:47;3.73;;;2.43;;
69837;SDS011;57135;51.992;4.476;2024-03-23T12:08:18;4.23;;;2.75;;
69837;SDS011;57135;51.992;4.476;2024-03-23T12:10:48;3.87;;;2.52;;
69837;SDS011;57135;51.992;4.476;2024-03-23T12:13:20;4.55;;;2.96;;
69837;SDS011;57135;51.992;4.476;2024-03-23T12:15:47;4.11;;;2.68;;
69837;SDS011;57135;51.992;4.476;2024-03-23T12:18:14;4.29;;;2.80;;
69837;SDS011;57135;51.992;4.476;2024-03-23T12:20:40;5.11;;;3.36;;
69837;SDS011;57135;51.992;4.476;2024-03-23T12:23:12;4.09;;;2.76;;
69837;SDS011;57135;51.992;4.476;2024-03-23T12:25:38;3.49;;;2.38;;
69837;SDS011;57135;51.992;4.476;2024-03-23T12:28:04;3.66;;;2.40;;
69837;SDS011;57135;51.992;4.476;2024-03-23T12:30:32;3.73;;;2.44;;
69837;SDS011;57135;51.992;4.476;2024-03-23T12:33:01;3.19;;;2.07;;
69837;SDS011;57135;51.992;4.476;2024-03-23T12:35:27;3.58;;;2.33;;
69837;SDS011;57135;51.992;4.476;2024-03-23T12:37:52;3.76;;;2.43;;
69837;SDS011;57135;51.992;4.476;2024-03-23T12:40:18;3.08;;;2.01;;
69837;SDS011;57135;51.992;4.476;2024-03-23T12:42:43;5.17;;;3.32;;
69837;SDS011;57135;51.992;4.476;2024-03-23T12:45:09;4.94;;;3.21;;
69837;SDS011;57135;51.992;4.476;2024-03-23T12:47:34;4.95;;;3.24;;
69837;SDS011;57135;51.992;4.476;2024-03-23T12:49:59;4.58;;;2.97;;
69837;SDS011;57135;51.992;4.476;2024-03-23T12:52:25;4.33;;;2.83;;
69837;SDS011;57135;51.992;4.476;2024-03-23T12:54:56;4.14;;;2.73;;
69837;SDS011;57135;51.992;4.476;2024-03-23T12:57:22;3.74;;;2.47;;
69837;SDS011;57135;51.992;4.476;2024-03-23T12:59:49;2.93;;;1.93;;
69837;SDS011;57135;51.992;4.476;2024-03-23T13:02:17;3.59;;;2.39;;
69837;SDS011;57135;51.992;4.476;2024-03-23T13:04:44;3.81;;;2.51;;
69837;SDS011;57135;51.992;4.476;2024-03-23T13:07:10;3.53;;;2.35;;
69837;SDS011;57135;51.992;4.476;2024-03-23T13:09:36;4.11;;;2.73;;
69837;SDS011;57135;51.992;4.476;2024-03-23T13:12:01;4.94;;;3.21;;
69837;SDS011;57135;51.992;4.476;2024-03-23T13:14:27;4.32;;;2.87;;
69837;SDS011;57135;51.992;4.476;2024-03-23T13:16:52;3.74;;;2.51;;
69837;SDS011;57135;51.992;4.476;2024-03-23T13:19:18;3.38;;;2.27;;
69837;SDS011;57135;51.992;4.476;2024-03-23T13:21:44;3.61;;;2.42;;
69837;SDS011;57135;51.992;4.476;2024-03-23T13:24:10;3.09;;;2.09;;
69837;SDS011;57135;51.992;4.476;2024-03-23T13:26:35;3.92;;;2.63;;
69837;SDS011;57135;51.992;4.476;2024-03-23T13:29:00;4.33;;;2.84;;
69837;SDS011;57135;51.992;4.476;2024-03-23T13:31:26;4.40;;;2.86;;
69837;SDS011;57135;51.992;4.476;2024-03-23T13:33:51;4.52;;;3.02;;
69837;SDS011;57135;51.992;4.476;2024-03-23T13:36:17;4.74;;;3.17;;
69837;SDS011;57135;51.992;4.476;2024-03-23T13:38:45;5.30;;;3.54;;
69837;SDS011;57135;51.992;4.476;2024-03-23T13:41:11;3.90;;;2.65;;
69837;SDS011;57135;51.992;4.476;2024-03-23T13:43:37;4.26;;;2.85;;
69837;SDS011;57135;51.992;4.476;2024-03-23T13:46:03;3.92;;;2.57;;
69837;SDS011;57135;51.992;4.476;2024-03-23T13:48:28;2.98;;;1.97;;
69837;SDS011;57135;51.992;4.476;2024-03-23T13:51:03;2.44;;;1.64;;
69837;SDS011;57135;51.992;4.476;2024-03-23T13:53:29;2.79;;;1.87;;
69837;SDS011;57135;51.992;4.476;2024-03-23T13:55:56;2.63;;;1.74;;
69837;SDS011;57135;51.992;4.476;2024-03-23T13:58:21;2.67;;;1.78;;
69837;SDS011;57135;51.992;4.476;2024-03-23T14:00:50;1.66;;;1.12;;
69837;SDS011;57135;51.992;4.476;2024-03-23T14:03:16;1.36;;;0.92;;
69837;SDS011;57135;51.992;4.476;2024-03-23T14:05:43;1.80;;;1.22;;
69837;SDS011;57135;51.992;4.476;2024-03-23T14:08:14;1.53;;;1.03;;
69837;SDS011;57135;51.992;4.476;2024-03-23T14:10:40;1.48;;;1.00;;
69837;SDS011;57135;51.992;4.476;2024-03-23T14:13:06;3.18;;;2.24;;
69837;SDS011;57135;51.992;4.476;2024-03-23T14:15:32;2.10;;;1.51;;
69837;SDS011;57135;51.992;4.476;2024-03-23T14:17:59;2.14;;;1.53;;
69837;SDS011;57135;51.992;4.476;2024-03-23T14:20:25;2.38;;;1.68;;
69837;SDS011;57135;51.992;4.476;2024-03-23T14:22:51;2.84;;;1.99;;
69837;SDS011;57135;51.992;4.476;2024-03-23T14:25:17;2.85;;;1.99;;
69837;SDS011;57135;51.992;4.476;2024-03-23T14:27:43;2.74;;;1.91;;
69837;SDS011;57135;51.992;4.476;2024-03-23T14:30:09;3.10;;;2.12;;
69837;SDS011;57135;51.992;4.476;2024-03-23T14:32:35;2.87;;;1.96;;
69837;SDS011;57135;51.992;4.476;2024-03-23T14:35:05;3.11;;;2.12;;
69837;SDS011;57135;51.992;4.476;2024-03-23T14:37:38;3.21;;;2.20;;
69837;SDS011;57135;51.992;4.476;2024-03-23T14:40:04;3.53;;;2.39;;
69837;SDS011;57135;51.992;4.476;2024-03-23T14:42:30;4.02;;;2.73;;
69837;SDS011;57135;51.992;4.476;2024-03-23T14:44:57;4.52;;;3.08;;
69837;SDS011;57135;51.992;4.476;2024-03-23T14:47:23;3.61;;;2.47;;
69837;SDS011;57135;51.992;4.476;2024-03-23T14:49:48;3.23;;;2.17;;
69837;SDS011;57135;51.992;4.476;2024-03-23T14:52:17;3.38;;;2.29;;
69837;SDS011;57135;51.992;4.476;2024-03-23T14:54:43;3.69;;;2.49;;
69837;SDS011;57135;51.992;4.476;2024-03-23T14:57:09;2.93;;;2.01;;
69837;SDS011;57135;51.992;4.476;2024-03-23T14:59:35;2.74;;;1.92;;
69837;SDS011;57135;51.992;4.476;2024-03-23T15:02:03;2.69;;;1.91;;
69837;SDS011;57135;51.992;4.476;2024-03-23T15:04:29;3.41;;;2.39;;
69837;SDS011;57135;51.992;4.476;2024-03-23T15:06:55;2.89;;;2.02;;
69837;SDS011;57135;51.992;4.476;2024-03-23T15:09:20;3.17;;;2.23;;
69837;SDS011;57135;51.992;4.476;2024-03-23T15:11:45;3.16;;;2.24;;
69837;SDS011;57135;51.992;4.476;2024-03-23T15:14:14;3.83;;;2.70;;
69837;SDS011;57135;51.992;4.476;2024-03-23T15:16:42;3.56;;;2.50;;
69837;SDS011;57135;51.992;4.476;2024-03-23T15:19:07;2.76;;;1.92;;
69837;SDS011;57135;51.992;4.476;2024-03-23T15:21:33;2.88;;;2.02;;
69837;SDS011;57135;51.992;4.476;2024-03-23T15:23:59;2.62;;;1.81;;
69837;SDS011;57135;51.992;4.476;2024-03-23T15:26:24;2.41;;;1.69;;
69837;SDS011;57135;51.992;4.476;2024-03-23T15:28:50;2.75;;;1.90;;
69837;SDS011;57135;51.992;4.476;2024-03-23T15:31:35;2.25;;;1.58;;
69837;SDS011;57135;51.992;4.476;2024-03-23T15:34:00;2.72;;;1.93;;
69837;SDS011;57135;51.992;4.476;2024-03-23T15:36:26;2.28;;;1.63;;
69837;SDS011;57135;51.992;4.476;2024-03-23T15:38:52;2.49;;;1.80;;
69837;SDS011;57135;51.992;4.476;2024-03-23T15:41:19;2.18;;;1.55;;
69837;SDS011;57135;51.992;4.476;2024-03-23T15:43:45;2.65;;;1.89;;
69837;SDS011;57135;51.992;4.476;2024-03-23T15:46:10;2.44;;;1.76;;
69837;SDS011;57135;51.992;4.476;2024-03-23T15:48:36;2.24;;;1.59;;
69837;SDS011;57135;51.992;4.476;2024-03-23T15:51:02;2.54;;;1.80;;
69837;SDS011;57135;51.992;4.476;2024-03-23T15:53:29;2.21;;;1.58;;
69837;SDS011;57135;51.992;4.476;2024-03-23T15:55:56;2.19;;;1.56;;
69837;SDS011;57135;51.992;4.476;2024-03-23T15:58:22;2.60;;;1.85;;
69837;SDS011;57135;51.992;4.476;2024-03-23T16:03:20;3.13;;;2.31;;
69837;SDS011;57135;51.992;4.476;2024-03-23T16:06:01;2.86;;;2.12;;
69837;SDS011;57135;51.992;4.476;2024-03-23T16:08:28;2.32;;;1.72;;
69837;SDS011;57135;51.992;4.476;2024-03-23T16:10:54;2.03;;;1.49;;
69837;SDS011;57135;51.992;4.476;2024-03-23T16:13:21;1.84;;;1.35;;
69837;SDS011;57135;51.992;4.476;2024-03-23T16:15:59;2.10;;;1.53;;
69837;SDS011;57135;51.992;4.476;2024-03-23T16:18:31;2.02;;;1.46;;
69837;SDS011;57135;51.992;4.476;2024-03-23T16:20:58;2.11;;;1.49;;
69837;SDS011;57135;51.992;4.476;2024-03-23T16:23:28;2.56;;;1.76;;
69837;SDS011;57135;51.992;4.476;2024-03-23T16:25:54;2.39;;;1.62;;
69837;SDS011;57135;51.992;4.476;2024-03-23T16:28:34;2.90;;;1.98;;
69837;SDS011;57135;51.992;4.476;2024-03-23T16:31:07;3.10;;;2.10;;
69837;SDS011;57135;51.992;4.476;2024-03-23T16:33:34;2.78;;;1.87;;
69837;SDS011;57135;51.992;4.476;2024-03-23T16:36:01;2.46;;;1.64;;
69837;SDS011;57135;51.992;4.476;2024-03-23T16:38:31;2.92;;;1.95;;
69837;SDS011;57135;51.992;4.476;2024-03-23T16:40:58;2.76;;;1.86;;
69837;SDS011;57135;51.992;4.476;2024-03-23T16:43:27;2.93;;;1.97;;
69837;SDS011;57135;51.992;4.476;2024-03-23T16:45:57;3.93;;;2.64;;
69837;SDS011;57135;51.992;4.476;2024-03-23T16:48:25;3.22;;;2.20;;
69837;SDS011;57135;51.992;4.476;2024-03-23T16:50:52;2.65;;;1.82;;
69837;SDS011;57135;51.992;4.476;2024-03-23T16:53:18;1.41;;;0.96;;
69837;SDS011;57135;51.992;4.476;2024-03-23T16:55:44;1.89;;;1.28;;
69837;SDS011;57135;51.992;4.476;2024-03-23T16:58:10;2.48;;;1.66;;
69837;SDS011;57135;51.992;4.476;2024-03-23T17:00:39;2.53;;;1.68;;
69837;SDS011;57135;51.992;4.476;2024-03-23T17:03:05;3.18;;;2.14;;
69837;SDS011;57135;51.992;4.476;2024-03-23T17:05:37;3.19;;;2.22;;
69837;SDS011;57135;51.992;4.476;2024-03-23T17:08:03;3.31;;;2.34;;
69837;SDS011;57135;51.992;4.476;2024-03-23T17:10:29;3.50;;;2.60;;
69837;SDS011;57135;51.992;4.476;2024-03-23T17:12:54;2.71;;;2.04;;
69837;SDS011;57135;51.992;4.476;2024-03-23T17:15:20;2.75;;;2.11;;
69837;SDS011;57135;51.992;4.476;2024-03-23T17:17:47;3.02;;;2.32;;
69837;SDS011;57135;51.992;4.476;2024-03-23T17:20:13;2.79;;;2.27;;
69837;SDS011;57135;51.992;4.476;2024-03-23T17:22:39;3.15;;;2.57;;
69837;SDS011;57135;51.992;4.476;2024-03-23T17:25:07;3.60;;;2.78;;
69837;SDS011;57135;51.992;4.476;2024-03-23T17:27:33;2.67;;;2.03;;
69837;SDS011;57135;51.992;4.476;2024-03-23T17:29:58;2.29;;;1.69;;
69837;SDS011;57135;51.992;4.476;2024-03-23T17:32:24;2.45;;;1.82;;
69837;SDS011;57135;51.992;4.476;2024-03-23T17:34:49;2.72;;;2.04;;
69837;SDS011;57135;51.992;4.476;2024-03-23T17:37:15;2.86;;;2.08;;
69837;SDS011;57135;51.992;4.476;2024-03-23T17:39:42;3.34;;;2.40;;
69837;SDS011;57135;51.992;4.476;2024-03-23T17:42:07;3.11;;;2.21;;
69837;SDS011;57135;51.992;4.476;2024-03-23T17:44:33;2.55;;;1.81;;
69837;SDS011;57135;51.992;4.476;2024-03-23T17:46:58;2.82;;;2.01;;
69837;SDS011;57135;51.992;4.476;2024-03-23T17:49:23;2.44;;;1.75;;
69837;SDS011;57135;51.992;4.476;2024-03-23T17:51:49;2.39;;;1.74;;
69837;SDS011;57135;51.992;4.476;2024-03-23T17:54:14;2.06;;;1.57;;
69837;SDS011;57135;51.992;4.476;2024-03-23T17:56:40;1.94;;;1.52;;
69837;SDS011;57135;51.992;4.476;2024-03-23T17:59:05;1.55;;;1.22;;
69837;SDS011;57135;51.992;4.476;2024-03-23T18:01:32;1.90;;;1.54;;
69837;SDS011;57135;51.992;4.476;2024-03-23T18:03:57;1.43;;;1.20;;
69837;SDS011;57135;51.992;4.476;2024-03-23T18:06:23;1.18;;;1.02;;
69837;SDS011;57135;51.992;4.476;2024-03-23T18:08:51;1.54;;;1.32;;
69837;SDS011;57135;51.992;4.476;2024-03-23T18:11:17;1.47;;;1.24;;
69837;SDS011;57135;51.992;4.476;2024-03-23T18:13:42;1.56;;;1.31;;
69837;SDS011;57135;51.992;4.476;2024-03-23T18:16:08;2.03;;;1.74;;
69837;SDS011;57135;51.992;4.476;2024-03-23T18:18:33;2.36;;;2.01;;
69837;SDS011;57135;51.992;4.476;2024-03-23T18:21:02;2.54;;;2.22;;
69837;SDS011;57135;51.992;4.476;2024-03-23T18:23:31;2.29;;;2.02;;
69837;SDS011;57135;51.992;4.476;2024-03-23T18:25:56;2.31;;;2.07;;
69837;SDS011;57135;51.992;4.476;2024-03-23T18:28:22;2.33;;;2.08;;
69837;SDS011;57135;51.992;4.476;2024-03-23T18:31:01;1.97;;;1.74;;
69837;SDS011;57135;51.992;4.476;2024-03-23T18:33:39;2.05;;;1.79;;
69837;SDS011;57135;51.992;4.476;2024-03-23T18:36:05;1.83;;;1.60;;
69837;SDS011;57135;51.992;4.476;2024-03-23T18:38:31;1.95;;;1.65;;
69837;SDS011;57135;51.992;4.476;2024-03-23T18:40:56;2.30;;;1.91;;
69837;SDS011;57135;51.992;4.476;2024-03-23T18:43:22;2.15;;;1.77;;
69837;SDS011;57135;51.992;4.476;2024-03-23T18:45:51;3.06;;;2.55;;
69837;SDS011;57135;51.992;4.476;2024-03-23T18:48:17;2.94;;;2.47;;
69837;SDS011;57135;51.992;4.476;2024-03-23T18:50:43;3.08;;;2.55;;
69837;SDS011;57135;51.992;4.476;2024-03-23T18:53:09;3.24;;;2.75;;
69837;SDS011;57135;51.992;4.476;2024-03-23T18:55:35;3.81;;;3.31;;
69837;SDS011;57135;51.992;4.476;2024-03-23T18:58:04;3.39;;;2.97;;
69837;SDS011;57135;51.992;4.476;2024-03-23T19:00:31;2.90;;;2.51;;
69837;SDS011;57135;51.992;4.476;2024-03-23T19:02:57;2.54;;;2.21;;
69837;SDS011;57135;51.992;4.476;2024-03-23T19:05:22;2.20;;;1.95;;
69837;SDS011;57135;51.992;4.476;2024-03-23T19:07:49;2.75;;;2.45;;
69837;SDS011;57135;51.992;4.476;2024-03-23T19:10:15;3.96;;;3.66;;
69837;SDS011;57135;51.992;4.476;2024-03-23T19:12:40;2.28;;;2.19;;
69837;SDS011;57135;51.992;4.476;2024-03-23T19:15:06;1.43;;;1.35;;
69837;SDS011;57135;51.992;4.476;2024-03-23T19:17:35;2.01;;;1.83;;
69837;SDS011;57135;51.992;4.476;2024-03-23T19:20:01;2.00;;;1.79;;
69837;SDS011;57135;51.992;4.476;2024-03-23T19:22:28;2.11;;;1.85;;
69837;SDS011;57135;51.992;4.476;2024-03-23T19:24:54;1.68;;;1.43;;
69837;SDS011;57135;51.992;4.476;2024-03-23T19:27:20;1.69;;;1.41;;
69837;SDS011;57135;51.992;4.476;2024-03-23T19:29:46;1.77;;;1.47;;
69837;SDS011;57135;51.992;4.476;2024-03-23T19:32:11;1.79;;;1.47;;
69837;SDS011;57135;51.992;4.476;2024-03-23T19:34:37;2.04;;;1.64;;
69837;SDS011;57135;51.992;4.476;2024-03-23T19:37:02;2.46;;;1.97;;
69837;SDS011;57135;51.992;4.476;2024-03-23T19:39:28;2.17;;;1.73;;
69837;SDS011;57135;51.992;4.476;2024-03-23T19:41:54;2.23;;;1.78;;
69837;SDS011;57135;51.992;4.476;2024-03-23T19:44:19;2.28;;;1.81;;
69837;SDS011;57135;51.992;4.476;2024-03-23T19:46:44;1.98;;;1.57;;
69837;SDS011;57135;51.992;4.476;2024-03-23T19:49:10;2.27;;;1.74;;
69837;SDS011;57135;51.992;4.476;2024-03-23T19:51:35;2.36;;;1.88;;
69837;SDS011;57135;51.992;4.476;2024-03-23T19:54:01;2.16;;;1.76;;
69837;SDS011;57135;51.992;4.476;2024-03-23T19:56:26;1.76;;;1.42;;
69837;SDS011;57135;51.992;4.476;2024-03-23T19:58:52;2.57;;;2.09;;
69837;SDS011;57135;51.992;4.476;2024-03-23T20:01:18;4.28;;;3.46;;
69837;SDS011;57135;51.992;4.476;2024-03-23T20:03:47;4.37;;;3.56;;
69837;SDS011;57135;51.992;4.476;2024-03-23T20:06:16;6.24;;;5.01;;
69837;SDS011;57135;51.992;4.476;2024-03-23T20:08:46;6.21;;;5.12;;
69837;SDS011;57135;51.992;4.476;2024-03-23T20:11:17;5.93;;;4.92;;
69837;SDS011;57135;51.992;4.476;2024-03-23T20:13:42;4.88;;;4.19;;
69837;SDS011;57135;51.992;4.476;2024-03-23T20:16:08;5.80;;;4.95;;
69837;SDS011;57135;51.992;4.476;2024-03-23T20:18:35;5.06;;;4.33;;
69837;SDS011;57135;51.992;4.476;2024-03-23T20:21:01;3.17;;;2.86;;
69837;SDS011;57135;51.992;4.476;2024-03-23T20:23:28;2.18;;;1.96;;
69837;SDS011;57135;51.992;4.476;2024-03-23T20:25:56;1.77;;;1.55;;
69837;SDS011;57135;51.992;4.476;2024-03-23T20:28:23;1.86;;;1.64;;
69837;SDS011;57135;51.992;4.476;2024-03-23T20:30:56;1.76;;;1.55;;
69837;SDS011;57135;51.992;4.476;2024-03-23T20:33:25;1.81;;;1.55;;
69837;SDS011;57135;51.992;4.476;2024-03-23T20:35:51;1.83;;;1.55;;
69837;SDS011;57135;51.992;4.476;2024-03-23T20:38:20;1.99;;;1.66;;
69837;SDS011;57135;51.992;4.476;2024-03-23T20:40:50;1.99;;;1.64;;
69837;SDS011;57135;51.992;4.476;2024-03-23T20:43:19;2.23;;;1.85;;
69837;SDS011;57135;51.992;4.476;2024-03-23T20:45:45;2.57;;;2.14;;
69837;SDS011;57135;51.992;4.476;2024-03-23T20:48:11;2.50;;;2.14;;
69837;SDS011;57135;51.992;4.476;2024-03-23T20:50:38;2.86;;;2.50;;
69837;SDS011;57135;51.992;4.476;2024-03-23T20:53:04;2.56;;;2.26;;
69837;SDS011;57135;51.992;4.476;2024-03-23T20:55:29;2.52;;;2.18;;